Neilburg, Canada
Current Conditions -  °F | °C
As of 6:00 AM on Thursday 23 Oct 2014 (Local Time) from CYLL Reporting Station
Clear Clear  
Wind Chill: 34°   Ceiling: Unl
Heat Index: 39°   Visibility: 9mi
Dew Point: 34°   Wind: 8mph
Humidity: 81%   Direction: 130°SE
Pressure: 29.53"   Gusts: NA
Location:  52.83°N, 109.63°W
Report Text: CYLL 231100Z AUTO 13007KT 9SM CLR 04/01 A2953 RMK SLP016
Loading
Personal Weather Stations






























Interactive Weather Map
Tropical Storm Tracking
New forecast layout! Learn more

10-Day Weather Forecast

Advertisements
Track Severe Weather on mobile